Time;durP1;ratioP1;P1;durP2;ratioP2;P2;SDS_P1;SDS_P2;PMS_P1;PMS_P2;Temp;Humidity;BMP_temperature;BMP_pressure;BME280_temperature;BME280_humidity;BME280_pressure;Samples;Min_cycle;Max_cycle;Signal;HPM_P1;HPM_P2
2023/07/14 00:01:34;;;;;;;3.80;3.20;;;18.30;99.90;;;;;;5032634;28;20466;-76
2023/07/14 00:04:01;;;;;;;4.67;3.10;;;18.30;99.90;;;;;;5032630;28;20547;-76
2023/07/14 00:06:28;;;;;;;10.37;3.43;;;18.30;99.90;;;;;;5032571;28;20484;-77
2023/07/14 00:08:55;;;;;;;6.10;3.10;;;18.20;99.90;;;;;;5032457;28;20501;-77
2023/07/14 00:11:23;;;;;;;9.60;3.77;;;18.20;99.90;;;;;;5032400;28;20488;-76
2023/07/14 00:13:51;;;;;;;5.50;2.97;;;18.10;99.90;;;;;;5032324;28;20462;-76
2023/07/14 00:16:28;;;;;;;4.23;3.13;;;18.00;99.90;;;;;;5032375;28;20462;-77
2023/07/14 00:18:56;;;;;;;3.53;3.23;;;17.90;99.90;;;;;;5031757;28;20469;-77
2023/07/14 00:21:25;;;;;;;6.27;3.10;;;17.90;99.90;;;;;;5032636;28;20451;-77
2023/07/14 00:23:58;;;;;;;7.47;2.63;;;17.80;99.90;;;;;;5032297;28;20481;-76
2023/07/14 00:26:26;;;;;;;7.87;3.20;;;17.80;99.90;;;;;;5032493;28;20461;-77
2023/07/14 00:28:54;;;;;;;3.30;3.00;;;17.60;99.90;;;;;;5031789;28;20864;-77
2023/07/14 00:31:24;;;;;;;7.23;3.40;;;17.50;99.90;;;;;;5037076;28;20546;-77
2023/07/14 00:33:54;;;;;;;4.63;2.77;;;17.60;99.90;;;;;;5031756;28;20439;-76
2023/07/14 00:36:23;;;;;;;6.80;3.00;;;17.50;99.90;;;;;;5032508;28;20454;-77
2023/07/14 00:38:50;;;;;;;6.90;3.40;;;17.40;99.90;;;;;;5031388;28;20815;-76
2023/07/14 00:41:20;;;;;;;5.07;3.10;;;17.40;99.90;;;;;;5031973;28;20930;-77
2023/07/14 00:43:48;;;;;;;6.70;3.27;;;17.40;99.90;;;;;;5031941;28;21011;-77
2023/07/14 00:46:25;;;;;;;6.70;3.20;;;17.40;99.90;;;;;;5031795;28;20460;-77
2023/07/14 00:48:54;;;;;;;5.03;3.87;;;17.40;99.90;;;;;;5031438;28;20519;-77
2023/07/14 00:51:25;;;;;;;5.80;3.53;;;17.30;99.90;;;;;;5031203;28;20512;-76
2023/07/14 00:53:52;;;;;;;6.00;3.63;;;17.30;99.90;;;;;;5031956;28;20507;-76
2023/07/14 00:56:38;;;;;;;8.57;3.80;;;17.30;99.90;;;;;;5031701;28;20463;-77
2023/07/14 00:59:13;;;;;;;3.60;3.10;;;17.30;99.90;;;;;;5031977;28;20484;-77
2023/07/14 01:02:16;;;;;;;15.10;3.27;;;17.20;99.90;;;;;;5031658;28;20937;-77
2023/07/14 01:04:45;;;;;;;6.17;3.30;;;17.10;99.90;;;;;;5024316;28;20479;-77
2023/07/14 01:07:15;;;;;;;7.50;3.37;;;17.00;99.90;;;;;;5031182;28;20449;-77
2023/07/14 01:09:43;;;;;;;4.57;3.10;;;17.00;99.90;;;;;;5031214;28;20453;-77
2023/07/14 01:12:13;;;;;;;8.80;3.20;;;16.90;99.90;;;;;;5031150;28;20556;-77
2023/07/14 01:14:43;;;;;;;5.83;3.07;;;16.80;99.90;;;;;;5031440;28;20544;-77
2023/07/14 01:17:10;;;;;;;4.20;3.00;;;16.80;99.90;;;;;;5031429;28;20478;-77
2023/07/14 01:19:43;;;;;;;5.37;3.00;;;16.60;99.90;;;;;;5031029;28;20431;-77
2023/07/14 01:22:30;;;;;;;5.33;3.40;;;16.60;99.90;;;;;;5031335;28;20907;-77
2023/07/14 01:25:08;;;;;;;5.30;3.50;;;16.60;99.90;;;;;;5031636;28;20469;-77
2023/07/14 01:27:36;;;;;;;6.47;3.60;;;16.50;99.90;;;;;;5031013;28;20449;-77
2023/07/14 01:30:03;;;;;;;9.30;4.47;;;16.50;99.90;;;;;;5029926;28;20891;-77
2023/07/14 01:32:36;;;;;;;4.57;3.50;;;16.50;99.90;;;;;;5036097;28;20459;-76
2023/07/14 01:35:05;;;;;;;4.83;3.57;;;16.40;99.90;;;;;;5031028;28;20512;-77
2023/07/14 01:37:35;;;;;;;3.50;3.20;;;16.40;99.90;;;;;;5031145;28;20457;-77
2023/07/14 01:40:05;;;;;;;4.17;3.50;;;16.30;99.90;;;;;;5030910;28;20432;-77
2023/07/14 01:42:32;;;;;;;4.27;3.57;;;16.30;99.90;;;;;;5031504;28;20455;-77
2023/07/14 01:45:01;;;;;;;3.87;3.47;;;16.20;99.90;;;;;;5031017;28;20482;-77
2023/07/14 01:47:30;;;;;;;5.33;3.17;;;16.20;99.90;;;;;;5031121;28;20431;-77
2023/07/14 01:49:59;;;;;;;7.30;3.20;;;16.10;99.90;;;;;;5030429;28;20485;-77
2023/07/14 01:52:30;;;;;;;3.87;2.93;;;16.10;99.90;;;;;;5030383;28;21191;-77
2023/07/14 01:55:01;;;;;;;9.90;3.70;;;15.90;99.90;;;;;;5030726;28;20459;-77
2023/07/14 01:57:31;;;;;;;6.67;3.87;;;15.80;99.90;;;;;;5031185;28;20548;-77
2023/07/14 02:00:03;;;;;;;6.50;3.67;;;15.60;99.90;;;;;;5030948;28;20436;-77
2023/07/14 02:02:34;;;;;;;6.60;3.53;;;15.60;99.90;;;;;;5030528;28;20458;-77
2023/07/14 02:05:03;;;;;;;5.83;3.30;;;15.60;99.90;;;;;;5030076;28;20851;-77
2023/07/14 02:07:30;;;;;;;5.60;3.70;;;15.60;99.90;;;;;;5030609;28;20932;-77
2023/07/14 02:09:56;;;;;;;6.03;3.40;;;15.60;99.90;;;;;;5030237;28;20971;-76
2023/07/14 02:12:28;;;;;;;5.00;3.40;;;15.60;99.90;;;;;;5030786;28;20464;-77
2023/07/14 02:14:59;;;;;;;4.13;3.03;;;15.60;99.90;;;;;;5030614;28;20964;-77
2023/07/14 02:17:33;;;;;;;4.83;3.60;;;15.60;99.90;;;;;;5030058;28;20428;-76
2023/07/14 02:20:03;;;;;;;5.47;3.20;;;15.60;99.90;;;;;;5030497;28;20800;-77
2023/07/14 02:22:30;;;;;;;7.03;3.30;;;15.60;99.90;;;;;;5030475;28;20465;-77
2023/07/14 02:24:57;;;;;;;8.70;3.57;;;15.60;99.90;;;;;;5030402;28;20448;-77
2023/07/14 02:27:24;;;;;;;12.50;4.00;;;15.60;99.90;;;;;;5030228;28;20495;-77
2023/07/14 02:29:51;;;;;;;6.20;3.60;;;15.60;99.90;;;;;;5030018;28;20461;-77
2023/07/14 02:32:24;;;;;;;6.30;3.20;;;15.60;99.90;;;;;;5030607;28;20494;-77
2023/07/14 02:34:57;;;;;;;5.80;3.43;;;15.60;99.90;;;;;;5023587;28;20452;-77
2023/07/14 02:37:51;;;;;;;6.90;3.50;;;15.60;99.90;;;;;;5031377;28;20461;-77
2023/07/14 02:40:19;;;;;;;6.03;3.40;;;15.50;99.90;;;;;;5030552;28;20423;-77
2023/07/14 02:42:45;;;;;;;10.20;3.77;;;15.50;99.90;;;;;;5034377;28;20446;-77
2023/07/14 02:45:14;;;;;;;5.77;3.20;;;15.50;99.90;;;;;;5034313;28;20481;-77
2023/07/14 02:47:43;;;;;;;8.97;4.07;;;15.40;99.90;;;;;;5033908;28;20953;-77
2023/07/14 02:50:11;;;;;;;4.23;3.27;;;15.40;99.90;;;;;;5033962;28;20428;-77
2023/07/14 02:52:38;;;;;;;5.40;3.27;;;15.30;99.90;;;;;;5034450;28;20455;-76
2023/07/14 02:55:07;;;;;;;3.97;3.57;;;15.20;99.90;;;;;;5033771;28;20448;-76
2023/07/14 02:57:34;;;;;;;6.57;3.43;;;15.20;99.90;;;;;;5033936;28;20440;-76
2023/07/14 03:00:01;;;;;;;5.63;3.57;;;15.10;99.90;;;;;;5033876;28;20519;-76
2023/07/14 03:02:27;;;;;;;4.80;3.43;;;15.10;99.90;;;;;;5033944;28;20803;-76
2023/07/14 03:04:54;;;;;;;4.43;3.10;;;15.00;99.90;;;;;;5033239;28;20477;-76
2023/07/14 03:07:22;;;;;;;7.30;3.50;;;14.90;99.90;;;;;;5034080;28;20435;-76
2023/07/14 03:09:49;;;;;;;3.80;3.37;;;14.90;99.90;;;;;;5033624;28;20447;-76
2023/07/14 03:12:15;;;;;;;5.47;3.80;;;14.80;99.90;;;;;;5033832;28;20467;-76
2023/07/14 03:14:42;;;;;;;7.30;3.70;;;14.80;99.90;;;;;;5033538;28;20457;-76
2023/07/14 03:17:09;;;;;;;6.70;3.73;;;14.80;99.90;;;;;;5033881;28;20459;-76
2023/07/14 03:19:36;;;;;;;5.93;3.57;;;14.70;99.90;;;;;;5032824;28;20497;-77
2023/07/14 03:22:02;;;;;;;4.60;3.70;;;14.70;99.90;;;;;;5033625;28;20941;-77
2023/07/14 03:24:30;;;;;;;6.20;3.87;;;14.60;99.90;;;;;;5033135;28;20469;-77
2023/07/14 03:26:57;;;;;;;6.17;4.10;;;14.70;99.90;;;;;;5033554;28;20451;-77
2023/07/14 03:29:24;;;;;;;7.37;3.90;;;14.70;99.90;;;;;;5032987;28;20451;-77
2023/07/14 03:31:50;;;;;;;6.00;3.90;;;14.70;99.90;;;;;;5039454;28;20989;-77
2023/07/14 03:34:17;;;;;;;6.97;4.27;;;14.70;99.90;;;;;;5033055;28;20469;-77
2023/07/14 03:36:44;;;;;;;4.60;4.00;;;14.70;99.90;;;;;;5033418;28;20529;-77
2023/07/14 03:39:24;;;;;;;4.37;3.70;;;14.70;99.90;;;;;;5033092;28;20507;-77
2023/07/14 03:41:53;;;;;;;10.23;3.67;;;14.70;99.90;;;;;;5033359;28;20445;-77
2023/07/14 03:44:20;;;;;;;4.07;3.63;;;14.70;99.90;;;;;;5032931;28;20447;-77
2023/07/14 03:46:47;;;;;;;5.80;3.67;;;14.70;99.90;;;;;;5033040;28;20468;-77
2023/07/14 03:49:14;;;;;;;5.90;3.83;;;14.70;99.90;;;;;;5033207;28;20449;-77
2023/07/14 03:51:41;;;;;;;4.33;3.93;;;14.70;99.90;;;;;;5032665;28;20492;-77
2023/07/14 03:54:08;;;;;;;4.27;3.87;;;14.80;99.90;;;;;;5031802;28;20473;-77
2023/07/14 03:56:34;;;;;;;4.90;3.80;;;14.80;99.90;;;;;;5032761;28;20424;-77
2023/07/14 03:59:03;;;;;;;5.10;4.00;;;14.80;99.90;;;;;;5032584;28;20432;-77
2023/07/14 04:01:30;;;;;;;6.17;3.70;;;14.90;99.90;;;;;;5032886;28;20434;-77
2023/07/14 04:03:57;;;;;;;4.20;3.50;;;14.90;99.90;;;;;;5032834;28;20993;-77
2023/07/14 04:06:23;;;;;;;4.03;3.63;;;15.00;99.90;;;;;;5032421;28;21053;-77
2023/07/14 04:08:53;;;;;;;7.73;3.73;;;14.90;99.90;;;;;;5031928;28;20458;-77
2023/07/14 04:11:19;;;;;;;5.30;3.60;;;15.00;99.90;;;;;;5032678;28;20552;-76
2023/07/14 04:13:46;;;;;;;7.17;3.73;;;15.00;99.90;;;;;;5032704;28;20457;-77
2023/07/14 04:16:14;;;;;;;5.20;4.00;;;15.10;99.90;;;;;;5032578;28;20436;-77
2023/07/14 04:18:41;;;;;;;5.00;3.80;;;15.10;99.90;;;;;;5032006;28;20490;-77
2023/07/14 04:21:10;;;;;;;7.83;4.03;;;15.10;99.90;;;;;;5032056;28;20454;-77
2023/07/14 04:23:37;;;;;;;5.30;3.87;;;15.10;99.90;;;;;;5031908;28;20860;-71
2023/07/14 04:26:04;;;;;;;5.17;3.90;;;15.20;99.90;;;;;;5032179;28;20457;-71
2023/07/14 04:28:30;;;;;;;3.70;3.13;;;15.50;99.90;;;;;;5032159;28;20497;-71
2023/07/14 04:31:00;;;;;;;3.63;3.10;;;15.80;99.90;;;;;;5035867;28;20452;-72
2023/07/14 04:33:29;;;;;;;10.13;3.83;;;16.10;99.90;;;;;;5035039;28;20491;-71
2023/07/14 04:35:57;;;;;;;6.40;3.30;;;16.30;99.90;;;;;;5031677;28;20538;-72
2023/07/14 04:38:24;;;;;;;3.83;2.80;;;16.70;99.90;;;;;;5031506;28;20900;-72
2023/07/14 04:40:51;;;;;;;7.30;3.40;;;16.80;99.90;;;;;;5032390;28;20949;-72
2023/07/14 04:43:19;;;;;;;6.23;2.97;;;17.00;99.90;;;;;;5031986;28;20471;-72
2023/07/14 04:45:47;;;;;;;4.97;3.23;;;17.20;99.90;;;;;;5031773;28;20911;-72
2023/07/14 04:48:16;;;;;;;4.83;3.20;;;17.20;99.90;;;;;;5031683;28;20841;-72
2023/07/14 04:50:46;;;;;;;6.83;3.43;;;17.30;99.90;;;;;;5031545;28;20449;-72
2023/07/14 04:53:15;;;;;;;4.17;3.27;;;17.40;99.90;;;;;;5031876;28;20475;-72
2023/07/14 04:55:43;;;;;;;8.50;3.97;;;17.40;99.90;;;;;;5031852;28;20506;-71
2023/07/14 04:58:11;;;;;;;7.63;3.10;;;17.40;99.90;;;;;;5031784;28;20527;-71
2023/07/14 05:00:39;;;;;;;6.53;3.40;;;17.40;99.90;;;;;;5031339;28;20450;-71
2023/07/14 05:03:06;;;;;;;6.90;3.80;;;17.40;99.90;;;;;;5031426;28;20449;-71
2023/07/14 05:05:33;;;;;;;6.00;3.43;;;17.30;99.90;;;;;;5031243;28;20499;-71
2023/07/14 05:08:01;;;;;;;3.60;3.00;;;17.50;99.90;;;;;;5031789;28;20507;-71
2023/07/14 05:10:31;;;;;;;10.20;3.23;;;17.60;99.90;;;;;;5031934;28;20536;-72
2023/07/14 05:12:58;;;;;;;4.53;2.80;;;17.90;99.90;;;;;;5031210;28;21065;-72
2023/07/14 05:15:26;;;;;;;5.00;3.27;;;18.00;99.90;;;;;;5030372;28;20546;-71
2023/07/14 05:17:56;;;;;;;5.07;3.87;;;18.00;99.90;;;;;;5030666;28;20457;-71
2023/07/14 05:20:23;;;;;;;7.07;4.10;;;18.00;99.90;;;;;;5036145;28;20820;-71
2023/07/14 05:22:53;;;;;;;3.60;3.00;;;18.00;99.90;;;;;;5031095;28;20858;-70
2023/07/14 05:25:22;;;;;;;12.90;3.70;;;17.90;99.90;;;;;;5030132;28;20468;-71
2023/07/14 05:27:49;;;;;;;9.33;4.00;;;18.00;99.90;;;;;;5030778;28;20454;-71
2023/07/14 05:30:17;;;;;;;6.23;3.10;;;18.10;99.90;;;;;;5029890;28;20473;-70
2023/07/14 05:32:45;;;;;;;7.77;4.13;;;18.20;99.90;;;;;;5029444;28;20489;-70
2023/07/14 05:35:14;;;;;;;10.52;3.70;;;18.40;99.90;;;;;;5029675;28;20444;-72
2023/07/14 05:37:41;;;;;;;10.07;4.20;;;18.20;99.90;;;;;;5030188;28;20257;-72
2023/07/14 05:40:10;;;;;;;11.93;5.20;;;18.00;99.90;;;;;;5029759;28;20503;-73
2023/07/14 05:42:39;;;;;;;7.03;4.00;;;17.90;99.90;;;;;;5029868;28;20528;-73
2023/07/14 05:45:07;;;;;;;6.23;4.10;;;17.90;99.90;;;;;;5030457;28;20473;-73
2023/07/14 05:47:36;;;;;;;7.20;4.10;;;17.80;99.90;;;;;;5030618;28;20457;-73
2023/07/14 05:50:05;;;;;;;10.63;4.50;;;17.80;99.90;;;;;;5030455;28;20509;-72
2023/07/14 05:52:31;;;;;;;6.73;4.27;;;17.70;99.90;;;;;;5030990;28;20495;-73
2023/07/14 05:54:58;;;;;;;8.73;4.57;;;17.70;99.90;;;;;;5030873;28;20522;-73
2023/07/14 05:57:25;;;;;;;4.70;3.97;;;17.80;99.90;;;;;;5036266;28;20506;-73
2023/07/14 05:59:53;;;;;;;4.73;3.90;;;18.00;99.90;;;;;;5031376;28;20449;-73
2023/07/14 06:02:19;;;;;;;7.20;3.90;;;18.10;99.90;;;;;;5030312;28;20470;-73
2023/07/14 06:04:46;;;;;;;7.87;4.20;;;18.30;99.90;;;;;;5030595;28;20527;-73
2023/07/14 06:07:14;;;;;;;5.17;4.30;;;18.40;99.90;;;;;;5030229;28;20934;-73
2023/07/14 06:09:41;;;;;;;4.60;4.20;;;18.60;99.90;;;;;;5021702;28;20745;-73
2023/07/14 06:12:10;;;;;;;9.90;4.03;;;18.80;99.90;;;;;;5030567;28;20462;-73
2023/07/14 06:14:41;;;;;;;6.40;4.00;;;18.90;99.90;;;;;;5033520;28;20459;-72
2023/07/14 06:17:09;;;;;;;6.67;4.30;;;19.00;99.90;;;;;;5033156;28;20457;-70
2023/07/14 06:19:36;;;;;;;3.93;3.60;;;19.30;99.90;;;;;;5034576;28;20806;-70
2023/07/14 06:22:06;;;;;;;5.90;4.13;;;19.50;99.90;;;;;;5034607;28;20452;-71
2023/07/14 06:24:34;;;;;;;5.60;3.60;;;19.70;99.90;;;;;;5034276;28;20512;-70
2023/07/14 06:27:01;;;;;;;3.80;3.27;;;19.90;99.90;;;;;;5034527;28;20510;-70
2023/07/14 06:29:28;;;;;;;7.63;3.73;;;20.20;99.90;;;;;;5034272;28;20884;-70
2023/07/14 06:31:54;;;;;;;5.20;3.00;;;20.40;99.90;;;;;;5034658;28;20985;-70
2023/07/14 06:34:22;;;;;;;6.50;3.40;;;20.60;99.90;;;;;;5033843;28;20608;-69
2023/07/14 06:36:49;;;;;;;3.90;3.13;;;20.70;99.90;;;;;;5033675;28;20521;-70
2023/07/14 06:39:16;;;;;;;9.00;3.20;;;20.70;99.90;;;;;;5034119;28;20445;-71
2023/07/14 06:41:42;;;;;;;5.13;3.20;;;20.80;99.90;;;;;;5033384;28;20539;-70
2023/07/14 06:44:09;;;;;;;6.30;3.07;;;20.90;99.90;;;;;;5033508;28;20515;-70
2023/07/14 06:46:35;;;;;;;3.70;3.07;;;20.90;99.90;;;;;;5033067;28;20880;-70
2023/07/14 06:49:03;;;;;;;5.20;3.10;;;20.70;99.90;;;;;;5025393;28;20796;-70
2023/07/14 06:51:31;;;;;;;5.53;3.63;;;20.60;99.90;;;;;;5033085;28;20552;-70
2023/07/14 06:53:57;;;;;;;4.90;3.33;;;20.50;99.90;;;;;;5033076;28;20538;-70
2023/07/14 06:56:24;;;;;;;8.73;3.13;;;20.40;99.90;;;;;;5032637;28;20449;-71
2023/07/14 06:58:51;;;;;;;5.60;3.00;;;20.40;99.90;;;;;;5033789;28;20491;-71
2023/07/14 07:01:17;;;;;;;5.20;2.90;;;20.40;99.90;;;;;;5033588;28;20447;-73
2023/07/14 07:03:45;;;;;;;7.77;3.07;;;20.50;99.90;;;;;;5033805;28;20211;-73
2023/07/14 07:06:11;;;;;;;4.87;2.97;;;20.40;99.90;;;;;;5033202;28;20457;-73
2023/07/14 07:08:39;;;;;;;6.57;3.50;;;20.40;99.90;;;;;;5033204;28;20453;-73
2023/07/14 07:11:06;;;;;;;4.37;2.70;;;20.40;99.90;;;;;;5033634;28;20519;-73
2023/07/14 07:13:32;;;;;;;4.50;2.70;;;20.50;99.90;;;;;;5033950;28;20527;-73
2023/07/14 07:15:59;;;;;;;8.07;2.93;;;20.60;99.90;;;;;;5033283;28;20469;-73
2023/07/14 07:18:28;;;;;;;6.67;3.63;;;20.70;99.90;;;;;;5033146;28;20457;-73
2023/07/14 07:20:55;;;;;;;3.30;3.00;;;20.90;99.90;;;;;;5033578;28;20457;-73
2023/07/14 07:23:22;;;;;;;3.07;2.80;;;21.00;99.90;;;;;;5033223;28;20456;-74
2023/07/14 07:25:51;;;;;;;5.40;2.90;;;21.30;99.90;;;;;;5033265;28;20535;-73
2023/07/14 07:28:19;;;;;;;4.90;2.63;;;21.30;99.90;;;;;;5031954;28;20449;-74
2023/07/14 07:30:46;;;;;;;3.37;2.87;;;21.60;99.90;;;;;;5033631;28;20554;-73
2023/07/14 07:33:13;;;;;;;8.33;2.63;;;21.80;99.90;;;;;;5033365;28;20535;-74
2023/07/14 07:35:41;;;;;;;5.00;2.53;;;21.80;99.90;;;;;;5033211;28;20548;-74
2023/07/14 07:38:10;;;;;;;5.20;3.07;;;22.10;99.90;;;;;;5033246;28;20449;-74
2023/07/14 07:40:37;;;;;;;4.37;2.50;;;22.50;99.90;;;;;;5033425;28;20937;-74
2023/07/14 07:43:05;;;;;;;5.97;2.43;;;22.70;99.90;;;;;;5032652;28;20863;-73
2023/07/14 07:45:31;;;;;;;6.30;3.53;;;22.90;99.90;;;;;;5031073;28;20833;-74
2023/07/14 07:47:58;;;;;;;10.53;3.00;;;23.10;99.90;;;;;;5032146;28;20511;-74
2023/07/14 07:50:26;;;;;;;4.00;2.70;;;23.20;99.90;;;;;;5030975;28;20457;-74
2023/07/14 07:52:53;;;;;;;6.80;2.57;;;23.40;99.90;;;;;;5032471;28;20861;-74
2023/07/14 07:55:20;;;;;;;2.33;2.13;;;23.50;99.90;;;;;;5032927;28;20554;-74
2023/07/14 07:57:47;;;;;;;5.10;2.40;;;23.50;99.90;;;;;;5032484;28;21019;-71
2023/07/14 08:00:16;;;;;;;5.73;2.20;;;23.30;99.90;;;;;;5032905;28;20891;-73
2023/07/14 08:02:42;;;;;;;4.77;2.33;;;23.50;99.90;;;;;;5032579;28;20993;-74
2023/07/14 08:05:12;;;;;;;4.17;2.27;;;23.60;99.90;;;;;;5031792;28;20473;-74
2023/07/14 08:07:38;;;;;;;3.27;2.40;;;24.00;99.90;;;;;;5032505;28;20529;-74
2023/07/14 08:10:06;;;;;;;11.93;2.57;;;24.30;99.90;;;;;;5032099;28;20454;-74
2023/07/14 08:12:33;;;;;;;9.27;2.30;;;24.50;99.90;;;;;;5031857;28;20984;-74
2023/07/14 08:15:00;;;;;;;4.83;2.30;;;24.60;99.90;;;;;;5031667;28;20481;-74
2023/07/14 08:17:31;;;;;;;7.53;2.43;;;24.60;99.90;;;;;;5031791;28;20894;-74
2023/07/14 08:19:58;;;;;;;2.30;2.10;;;24.70;99.90;;;;;;5031482;28;20551;-74
2023/07/14 08:22:26;;;;;;;5.57;2.10;;;24.70;99.90;;;;;;5031894;28;20457;-75
2023/07/14 08:24:57;;;;;;;3.63;2.40;;;24.60;99.90;;;;;;5031728;28;20556;-73
2023/07/14 08:27:24;;;;;;;4.60;3.07;;;24.70;99.90;;;;;;5031303;28;21033;-74
2023/07/14 08:29:52;;;;;;;13.07;2.67;;;24.90;99.90;;;;;;5031238;28;20987;-74
2023/07/14 08:32:19;;;;;;;3.60;2.80;;;25.00;99.90;;;;;;5033208;28;20897;-74
2023/07/14 08:34:47;;;;;;;6.40;2.30;;;24.90;99.90;;;;;;5031229;28;20489;-72
2023/07/14 08:37:14;;;;;;;5.20;2.17;;;25.00;99.90;;;;;;5031914;28;20453;-73
2023/07/14 08:39:41;;;;;;;6.03;2.43;;;25.50;99.90;;;;;;5030976;28;20454;-74
2023/07/14 08:42:20;;;;;;;5.40;2.50;;;25.50;99.90;;;;;;5031413;28;20449;-73
2023/07/14 08:45:00;;;;;;;7.87;2.17;;;25.40;99.90;;;;;;5031521;28;20879;-73
2023/07/14 08:47:32;;;;;;;5.70;2.60;;;25.50;99.90;;;;;;5031433;28;20453;-73
2023/07/14 08:50:08;;;;;;;9.27;2.50;;;25.50;99.90;;;;;;5030970;28;20469;-73
2023/07/14 08:52:37;;;;;;;7.90;2.40;;;25.60;99.90;;;;;;5030849;28;20503;-74
2023/07/14 08:55:09;;;;;;;2.70;2.07;;;25.50;99.90;;;;;;5031005;28;20871;-74
2023/07/14 08:57:46;;;;;;;6.63;2.50;;;25.40;99.90;;;;;;5031491;28;20467;-72
2023/07/14 09:00:17;;;;;;;4.13;2.60;;;25.00;99.90;;;;;;5030993;28;20987;-73
2023/07/14 09:02:51;;;;;;;5.00;2.20;;;24.90;99.90;;;;;;5031097;28;20536;-72
2023/07/14 09:05:26;;;;;;;3.70;2.43;;;24.80;99.90;;;;;;5031333;28;20469;-72
2023/07/14 09:07:53;;;;;;;2.90;2.20;;;24.80;99.90;;;;;;5030753;28;20871;-72
2023/07/14 09:10:32;;;;;;;7.83;2.47;;;24.70;99.90;;;;;;5031307;28;20449;-73
2023/07/14 09:13:08;;;;;;;8.60;2.43;;;24.70;99.90;;;;;;5030889;28;20907;-71
2023/07/14 09:15:36;;;;;;;3.00;2.47;;;24.90;99.90;;;;;;5030449;28;20512;-70
2023/07/14 09:18:28;;;;;;;3.93;2.30;;;24.90;99.90;;;;;;5030664;28;20465;-71
2023/07/14 09:21:14;;;;;;;6.00;2.37;;;24.60;99.90;;;;;;5030793;28;20449;-71
2023/07/14 09:24:08;;;;;;;4.20;2.50;;;24.80;99.90;;;;;;5030376;28;20437;-72
2023/07/14 09:26:40;;;;;;;6.70;2.30;;;25.00;99.90;;;;;;5028108;28;20492;-72
2023/07/14 09:29:14;;;;;;;8.13;2.40;;;25.20;99.90;;;;;;5029881;28;20535;-72
2023/07/14 09:31:48;;;;;;;7.53;2.60;;;25.20;99.90;;;;;;5032440;28;20851;-73
2023/07/14 09:34:24;;;;;;;8.70;2.60;;;25.20;99.90;;;;;;5030200;28;20527;-72
2023/07/14 09:36:54;;;;;;;2.40;2.07;;;25.10;99.90;;;;;;5030566;28;20831;-73
2023/07/14 09:39:27;;;;;;;3.60;2.00;;;25.10;99.90;;;;;;5030409;28;20457;-73
2023/07/14 09:41:59;;;;;;;6.37;2.77;;;25.00;99.90;;;;;;5030537;28;20450;-72
2023/07/14 09:44:26;;;;;;;4.27;2.50;;;25.20;99.90;;;;;;5030048;28;20465;-72
2023/07/14 09:46:54;;;;;;;5.77;2.30;;;25.40;99.90;;;;;;5030110;28;20544;-73
2023/07/14 09:49:32;;;;;;;7.73;2.30;;;25.50;99.90;;;;;;5030362;28;20490;-71
2023/07/14 09:52:20;;;;;;;3.27;2.20;;;25.50;99.90;;;;;;5029188;28;20810;-71
2023/07/14 09:54:53;;;;;;;6.30;2.43;;;25.30;99.90;;;;;;5029696;28;20550;-72
2023/07/14 09:57:22;;;;;;;4.40;2.10;;;25.30;99.90;;;;;;5029795;28;20442;-71
2023/07/14 09:59:56;;;;;;;5.77;2.87;;;25.20;99.90;;;;;;5030543;28;20456;-72
2023/07/14 10:02:28;;;;;;;6.97;2.17;;;25.20;99.90;;;;;;5030738;28;20500;-72
2023/07/14 10:04:59;;;;;;;6.10;2.20;;;25.20;99.90;;;;;;5030161;28;20836;-71
2023/07/14 10:07:40;;;;;;;6.90;2.13;;;25.00;99.90;;;;;;5030679;28;20854;-71
2023/07/14 10:10:09;;;;;;;7.90;2.27;;;25.00;99.90;;;;;;5030293;28;20453;-71
2023/07/14 10:12:37;;;;;;;3.47;2.00;;;25.10;99.90;;;;;;5028428;28;20458;-71
2023/07/14 10:15:24;;;;;;;3.67;2.27;;;25.20;99.90;;;;;;5030040;28;20517;-72
2023/07/14 10:17:55;;;;;;;4.53;2.40;;;25.30;99.90;;;;;;5027501;28;20879;-71
2023/07/14 10:20:24;;;;;;;3.77;2.23;;;25.20;99.90;;;;;;5030469;28;20540;-72
2023/07/14 10:22:55;;;;;;;2.60;2.20;;;25.10;99.90;;;;;;5030356;28;20461;-71
2023/07/14 10:25:23;;;;;;;3.50;2.07;;;25.00;99.90;;;;;;5030404;28;20461;-72
2023/07/14 10:27:57;;;;;;;12.00;2.87;;;24.80;99.90;;;;;;5030135;28;20445;-72
2023/07/14 10:30:47;;;;;;;8.47;2.30;;;24.60;99.90;;;;;;5032417;28;20457;-71
2023/07/14 10:33:19;;;;;;;4.60;2.20;;;24.80;99.90;;;;;;5029812;28;20933;-71
2023/07/14 10:35:48;;;;;;;8.63;2.37;;;25.00;99.90;;;;;;5030289;28;20480;-71
2023/07/14 10:38:20;;;;;;;6.30;1.90;;;25.10;99.90;;;;;;5029835;28;20503;-71
2023/07/14 10:40:55;;;;;;;7.57;2.40;;;25.50;99.90;;;;;;5030433;28;20507;-72
2023/07/14 10:43:26;;;;;;;5.47;2.10;;;25.70;99.90;;;;;;5030649;28;20448;-71
2023/07/14 10:45:56;;;;;;;7.33;2.30;;;25.50;99.90;;;;;;5030592;28;20527;-72
2023/07/14 10:48:27;;;;;;;11.90;2.60;;;25.40;99.90;;;;;;5032803;28;20449;-72
2023/07/14 10:50:58;;;;;;;8.97;2.23;;;25.30;99.90;;;;;;5030190;28;20815;-71
2023/07/14 10:53:33;;;;;;;5.60;2.60;;;25.00;99.90;;;;;;5030474;28;20442;-72
2023/07/14 10:56:03;;;;;;;4.87;2.40;;;24.70;99.90;;;;;;5030046;28;20480;-72
2023/07/14 10:58:38;;;;;;;9.33;2.30;;;24.50;99.90;;;;;;5037665;28;20449;-72
2023/07/14 11:01:13;;;;;;;7.13;2.23;;;24.40;99.90;;;;;;5030281;28;20457;-72
2023/07/14 11:03:43;;;;;;;2.90;2.10;;;24.40;99.90;;;;;;5033484;28;20949;-72
2023/07/14 11:06:17;;;;;;;7.00;2.40;;;24.50;99.90;;;;;;5033780;28;20511;-72
2023/07/14 11:08:51;;;;;;;7.20;2.50;;;24.60;99.90;;;;;;5036486;28;20449;-72
2023/07/14 11:11:24;;;;;;;38.23;3.53;;;24.60;99.90;;;;;;5033959;28;20445;-72
2023/07/14 11:14:05;;;;;;;4.60;2.43;;;24.50;99.90;;;;;;5033904;28;20538;-72
2023/07/14 11:16:39;;;;;;;7.07;2.70;;;24.60;99.90;;;;;;5033535;28;20445;-72
2023/07/14 11:19:08;;;;;;;8.60;2.37;;;24.60;99.90;;;;;;5034669;28;20479;-72
2023/07/14 11:21:42;;;;;;;6.17;2.53;;;24.70;99.90;;;;;;5033616;28;20449;-72
2023/07/14 11:24:18;;;;;;;2.90;2.27;;;24.60;99.90;;;;;;5033362;28;20965;-71
2023/07/14 11:27:00;;;;;;;8.70;2.57;;;24.50;99.90;;;;;;5033379;28;20503;-72
2023/07/14 11:29:43;;;;;;;4.40;2.63;;;24.40;99.90;;;;;;5032996;28;20457;-72
2023/07/14 11:32:18;;;;;;;7.07;2.50;;;24.40;99.90;;;;;;5036347;28;20446;-72
2023/07/14 11:34:58;;;;;;;4.70;2.27;;;24.60;99.90;;;;;;5033144;28;20492;-72
2023/07/14 11:37:38;;;;;;;7.83;2.87;;;24.70;99.90;;;;;;5032986;28;20445;-73
2023/07/14 11:40:19;;;;;;;10.10;2.90;;;24.70;99.90;;;;;;5032749;28;21071;-71
2023/07/14 11:42:51;;;;;;;8.30;2.47;;;24.70;99.90;;;;;;5032944;28;20536;-72
2023/07/14 11:45:22;;;;;;;13.13;2.67;;;24.70;99.90;;;;;;5038744;28;20974;-72
2023/07/14 11:47:49;;;;;;;9.57;2.60;;;24.80;99.90;;;;;;5033560;28;20457;-72
2023/07/14 11:50:29;;;;;;;13.50;2.70;;;24.90;99.90;;;;;;5032924;28;20445;-72
2023/07/14 11:53:01;;;;;;;6.90;2.43;;;24.90;99.90;;;;;;5033399;28;20468;-72
2023/07/14 11:55:31;;;;;;;9.70;2.60;;;24.90;99.90;;;;;;5032580;28;20493;-72
2023/07/14 11:58:16;;;;;;;15.93;2.73;;;24.90;99.90;;;;;;5032248;28;20449;-72
2023/07/14 12:00:47;;;;;;;6.50;2.83;;;25.00;99.90;;;;;;5032969;28;20457;-72
2023/07/14 12:03:28;;;;;;;11.63;2.50;;;25.20;99.90;;;;;;5031776;28;20821;-72
2023/07/14 12:06:25;;;;;;;7.57;2.30;;;25.30;99.90;;;;;;5032421;28;20524;-72
2023/07/14 12:09:11;;;;;;;3.30;2.13;;;25.40;99.90;;;;;;5032140;28;20464;-72
2023/07/14 12:11:54;;;;;;;6.33;2.47;;;25.50;99.90;;;;;;5031925;28;20469;-71
2023/07/14 12:14:46;;;;;;;6.73;2.40;;;25.60;99.90;;;;;;5031504;28;20505;-72
2023/07/14 12:17:44;;;;;;;5.13;2.50;;;25.70;99.90;;;;;;5033328;28;20456;-72
2023/07/14 12:20:36;;;;;;;4.13;2.40;;;25.90;99.90;;;;;;5034782;28;20446;-71
2023/07/14 12:23:16;;;;;;;6.60;2.30;;;26.00;99.90;;;;;;5028040;28;20701;-72
2023/07/14 12:25:50;;;;;;;9.53;2.03;;;25.90;99.90;;;;;;5035893;28;20468;-72
2023/07/14 12:28:26;;;;;;;6.60;2.33;;;25.90;99.90;;;;;;5033420;28;20495;-72
2023/07/14 12:30:54;;;;;;;3.50;2.23;;;26.00;99.90;;;;;;5035117;28;20463;-72
2023/07/14 12:33:21;;;;;;;5.70;2.37;;;26.10;99.90;;;;;;5031619;28;20450;-72
2023/07/14 12:35:49;;;;;;;4.27;1.97;;;26.30;99.90;;;;;;5030966;28;20985;-72
2023/07/14 12:38:18;;;;;;;6.60;2.67;;;26.60;99.90;;;;;;5031626;28;20457;-73
2023/07/14 12:40:46;;;;;;;2.93;2.40;;;26.60;99.90;;;;;;5025431;28;20540;-73
2023/07/14 12:43:26;;;;;;;5.67;2.67;;;26.60;99.90;;;;;;5030992;28;20523;-73
2023/07/14 12:45:55;;;;;;;5.27;2.40;;;26.50;99.90;;;;;;5030827;28;20530;-73
2023/07/14 12:48:25;;;;;;;3.67;2.27;;;26.40;99.90;;;;;;5030596;28;20515;-73
2023/07/14 12:50:52;;;;;;;5.30;2.43;;;26.30;99.90;;;;;;5030835;28;20507;-72
2023/07/14 12:53:19;;;;;;;3.10;2.07;;;26.30;99.90;;;;;;5030735;28;20511;-72
2023/07/14 12:55:46;;;;;;;8.77;2.20;;;26.50;99.90;;;;;;5030721;28;20500;-73
2023/07/14 12:58:19;;;;;;;5.10;2.10;;;26.60;99.90;;;;;;5029861;28;20516;-73
2023/07/14 13:00:47;;;;;;;5.67;2.37;;;26.80;99.90;;;;;;5031826;28;20480;-73
2023/07/14 13:03:15;;;;;;;3.63;2.30;;;26.70;99.90;;;;;;5029816;28;20559;-72